sensor_id;sensor_type;location;lat;lon;timestamp;P1;durP1;ratioP1;P2;durP2;ratioP2
34007;SDS011;41085;51.594;7.138;2023-01-29T00:01:04;0.80;;;0.70;;
34007;SDS011;41085;51.594;7.138;2023-01-29T00:05:06;4.00;;;0.98;;
34007;SDS011;41085;51.594;7.138;2023-01-29T00:09:06;2.35;;;0.80;;
34007;SDS011;41085;51.594;7.138;2023-01-29T00:13:07;1.07;;;0.77;;
34007;SDS011;41085;51.594;7.138;2023-01-29T00:17:08;1.92;;;0.85;;
34007;SDS011;41085;51.594;7.138;2023-01-29T00:21:09;0.95;;;0.77;;
34007;SDS011;41085;51.594;7.138;2023-01-29T00:25:11;1.02;;;0.50;;
34007;SDS011;41085;51.594;7.138;2023-01-29T00:29:11;2.57;;;0.90;;
34007;SDS011;41085;51.594;7.138;2023-01-29T00:33:12;0.90;;;0.75;;
34007;SDS011;41085;51.594;7.138;2023-01-29T00:37:13;3.10;;;1.10;;
34007;SDS011;41085;51.594;7.138;2023-01-29T00:41:14;0.80;;;0.70;;
34007;SDS011;41085;51.594;7.138;2023-01-29T00:45:33;0.88;;;0.70;;
34007;SDS011;41085;51.594;7.138;2023-01-29T00:49:35;1.42;;;0.82;;
34007;SDS011;41085;51.594;7.138;2023-01-29T00:53:36;1.37;;;1.03;;
34007;SDS011;41085;51.594;7.138;2023-01-29T00:57:36;1.37;;;0.80;;
34007;SDS011;41085;51.594;7.138;2023-01-29T01:01:37;1.30;;;1.00;;
34007;SDS011;41085;51.594;7.138;2023-01-29T01:06:03;1.42;;;0.90;;
34007;SDS011;41085;51.594;7.138;2023-01-29T01:10:11;1.03;;;0.60;;
34007;SDS011;41085;51.594;7.138;2023-01-29T01:14:19;2.43;;;1.20;;
34007;SDS011;41085;51.594;7.138;2023-01-29T01:18:20;1.98;;;0.68;;
34007;SDS011;41085;51.594;7.138;2023-01-29T01:22:21;0.97;;;0.83;;
34007;SDS011;41085;51.594;7.138;2023-01-29T01:26:22;1.00;;;0.70;;
34007;SDS011;41085;51.594;7.138;2023-01-29T01:30:23;1.20;;;0.70;;
34007;SDS011;41085;51.594;7.138;2023-01-29T01:34:24;1.60;;;0.70;;
34007;SDS011;41085;51.594;7.138;2023-01-29T01:38:28;1.83;;;0.85;;
34007;SDS011;41085;51.594;7.138;2023-01-29T01:42:29;5.03;;;0.77;;
34007;SDS011;41085;51.594;7.138;2023-01-29T01:46:30;1.60;;;0.52;;
34007;SDS011;41085;51.594;7.138;2023-01-29T01:54:36;0.90;;;0.47;;
34007;SDS011;41085;51.594;7.138;2023-01-29T01:58:37;1.17;;;0.70;;
34007;SDS011;41085;51.594;7.138;2023-01-29T02:02:43;0.53;;;0.53;;
34007;SDS011;41085;51.594;7.138;2023-01-29T02:07:03;0.70;;;0.60;;
34007;SDS011;41085;51.594;7.138;2023-01-29T02:11:25;0.43;;;0.40;;
34007;SDS011;41085;51.594;7.138;2023-01-29T02:15:25;0.73;;;0.47;;
34007;SDS011;41085;51.594;7.138;2023-01-29T02:19:38;0.50;;;0.50;;
34007;SDS011;41085;51.594;7.138;2023-01-29T02:23:48;1.40;;;0.70;;
34007;SDS011;41085;51.594;7.138;2023-01-29T02:32:29;0.60;;;0.50;;
34007;SDS011;41085;51.594;7.138;2023-01-29T02:36:50;0.85;;;0.70;;
34007;SDS011;41085;51.594;7.138;2023-01-29T02:53:47;0.95;;;0.60;;
34007;SDS011;41085;51.594;7.138;2023-01-29T02:58:30;0.88;;;0.45;;
34007;SDS011;41085;51.594;7.138;2023-01-29T03:06:41;0.57;;;0.40;;
34007;SDS011;41085;51.594;7.138;2023-01-29T03:11:39;0.95;;;0.55;;
34007;SDS011;41085;51.594;7.138;2023-01-29T03:15:45;0.40;;;0.40;;
34007;SDS011;41085;51.594;7.138;2023-01-29T03:19:50;2.05;;;0.90;;
34007;SDS011;41085;51.594;7.138;2023-01-29T03:23:50;0.57;;;0.40;;
34007;SDS011;41085;51.594;7.138;2023-01-29T03:28:14;1.00;;;0.60;;
34007;SDS011;41085;51.594;7.138;2023-01-29T03:32:35;0.70;;;0.50;;
34007;SDS011;41085;51.594;7.138;2023-01-29T03:36:51;0.50;;;0.50;;
34007;SDS011;41085;51.594;7.138;2023-01-29T03:40:55;1.10;;;0.40;;
34007;SDS011;41085;51.594;7.138;2023-01-29T03:53:50;0.47;;;0.33;;
34007;SDS011;41085;51.594;7.138;2023-01-29T04:07:40;0.30;;;0.30;;
34007;SDS011;41085;51.594;7.138;2023-01-29T04:12:10;0.50;;;0.30;;
34007;SDS011;41085;51.594;7.138;2023-01-29T04:16:20;0.60;;;0.38;;
34007;SDS011;41085;51.594;7.138;2023-01-29T04:20:26;0.80;;;0.40;;
34007;SDS011;41085;51.594;7.138;2023-01-29T04:24:26;0.85;;;0.52;;
34007;SDS011;41085;51.594;7.138;2023-01-29T04:28:29;0.70;;;0.40;;
34007;SDS011;41085;51.594;7.138;2023-01-29T04:52:33;0.50;;;0.30;;
34007;SDS011;41085;51.594;7.138;2023-01-29T04:57:33;1.55;;;0.43;;
34007;SDS011;41085;51.594;7.138;2023-01-29T05:01:12;0.45;;;0.38;;
34007;SDS011;41085;51.594;7.138;2023-01-29T05:05:18;0.57;;;0.45;;
34007;SDS011;41085;51.594;7.138;2023-01-29T05:09:23;0.43;;;0.40;;
34007;SDS011;41085;51.594;7.138;2023-01-29T05:13:28;0.55;;;0.43;;
34007;SDS011;41085;51.594;7.138;2023-01-29T05:17:30;0.65;;;0.45;;
34007;SDS011;41085;51.594;7.138;2023-01-29T05:21:31;0.47;;;0.30;;
34007;SDS011;41085;51.594;7.138;2023-01-29T05:25:32;0.60;;;0.50;;
34007;SDS011;41085;51.594;7.138;2023-01-29T05:29:33;0.75;;;0.40;;
34007;SDS011;41085;51.594;7.138;2023-01-29T05:33:33;1.73;;;0.37;;
34007;SDS011;41085;51.594;7.138;2023-01-29T05:37:34;0.32;;;0.30;;
34007;SDS011;41085;51.594;7.138;2023-01-29T05:41:34;0.83;;;0.40;;
34007;SDS011;41085;51.594;7.138;2023-01-29T05:45:35;0.30;;;0.30;;
34007;SDS011;41085;51.594;7.138;2023-01-29T05:49:35;0.30;;;0.30;;
34007;SDS011;41085;51.594;7.138;2023-01-29T05:53:36;0.50;;;0.40;;
34007;SDS011;41085;51.594;7.138;2023-01-29T05:57:38;0.43;;;0.30;;
34007;SDS011;41085;51.594;7.138;2023-01-29T06:01:39;0.40;;;0.40;;
34007;SDS011;41085;51.594;7.138;2023-01-29T06:05:40;0.30;;;0.30;;
34007;SDS011;41085;51.594;7.138;2023-01-29T06:09:40;0.80;;;0.40;;
34007;SDS011;41085;51.594;7.138;2023-01-29T06:13:41;0.50;;;0.40;;
34007;SDS011;41085;51.594;7.138;2023-01-29T06:17:41;0.70;;;0.40;;
34007;SDS011;41085;51.594;7.138;2023-01-29T06:21:42;0.38;;;0.38;;
34007;SDS011;41085;51.594;7.138;2023-01-29T06:25:43;0.50;;;0.50;;
34007;SDS011;41085;51.594;7.138;2023-01-29T06:29:43;0.50;;;0.40;;
34007;SDS011;41085;51.594;7.138;2023-01-29T06:33:44;0.30;;;0.20;;
34007;SDS011;41085;51.594;7.138;2023-01-29T06:37:44;0.77;;;0.37;;
34007;SDS011;41085;51.594;7.138;2023-01-29T06:41:45;0.60;;;0.40;;
34007;SDS011;41085;51.594;7.138;2023-01-29T06:45:49;0.70;;;0.60;;
34007;SDS011;41085;51.594;7.138;2023-01-29T06:49:54;0.80;;;0.50;;
34007;SDS011;41085;51.594;7.138;2023-01-29T06:53:54;0.40;;;0.40;;
34007;SDS011;41085;51.594;7.138;2023-01-29T06:57:55;0.70;;;0.50;;
34007;SDS011;41085;51.594;7.138;2023-01-29T07:01:55;0.40;;;0.38;;
34007;SDS011;41085;51.594;7.138;2023-01-29T07:05:56;0.40;;;0.40;;
34007;SDS011;41085;51.594;7.138;2023-01-29T07:09:57;1.20;;;0.60;;
34007;SDS011;41085;51.594;7.138;2023-01-29T07:13:57;2.45;;;0.32;;
34007;SDS011;41085;51.594;7.138;2023-01-29T07:17:58;0.70;;;0.50;;
34007;SDS011;41085;51.594;7.138;2023-01-29T07:22:00;0.60;;;0.40;;
34007;SDS011;41085;51.594;7.138;2023-01-29T07:26:03;0.40;;;0.35;;
34007;SDS011;41085;51.594;7.138;2023-01-29T07:30:05;0.50;;;0.30;;
34007;SDS011;41085;51.594;7.138;2023-01-29T07:34:08;0.57;;;0.38;;
34007;SDS011;41085;51.594;7.138;2023-01-29T07:38:09;0.60;;;0.40;;
34007;SDS011;41085;51.594;7.138;2023-01-29T07:42:10;0.30;;;0.28;;
34007;SDS011;41085;51.594;7.138;2023-01-29T07:46:11;0.73;;;0.60;;
34007;SDS011;41085;51.594;7.138;2023-01-29T07:50:11;0.40;;;0.30;;
34007;SDS011;41085;51.594;7.138;2023-01-29T07:54:12;0.57;;;0.40;;
34007;SDS011;41085;51.594;7.138;2023-01-29T07:58:12;1.20;;;0.37;;
34007;SDS011;41085;51.594;7.138;2023-01-29T08:02:13;0.50;;;0.40;;
34007;SDS011;41085;51.594;7.138;2023-01-29T08:06:13;0.50;;;0.33;;
34007;SDS011;41085;51.594;7.138;2023-01-29T08:10:14;0.30;;;0.30;;
34007;SDS011;41085;51.594;7.138;2023-01-29T08:14:15;0.85;;;0.20;;
34007;SDS011;41085;51.594;7.138;2023-01-29T08:18:15;1.60;;;0.40;;
34007;SDS011;41085;51.594;7.138;2023-01-29T08:22:16;5.45;;;3.47;;
34007;SDS011;41085;51.594;7.138;2023-01-29T08:26:17;7.47;;;3.00;;
34007;SDS011;41085;51.594;7.138;2023-01-29T08:30:17;2.65;;;1.38;;
34007;SDS011;41085;51.594;7.138;2023-01-29T08:34:18;2.67;;;1.40;;
34007;SDS011;41085;51.594;7.138;2023-01-29T08:38:19;1.70;;;0.95;;
34007;SDS011;41085;51.594;7.138;2023-01-29T08:42:20;2.30;;;1.20;;
34007;SDS011;41085;51.594;7.138;2023-01-29T08:46:20;1.85;;;1.45;;
34007;SDS011;41085;51.594;7.138;2023-01-29T08:50:21;2.53;;;0.87;;
34007;SDS011;41085;51.594;7.138;2023-01-29T08:54:22;1.07;;;0.80;;
34007;SDS011;41085;51.594;7.138;2023-01-29T08:58:22;2.00;;;1.00;;
34007;SDS011;41085;51.594;7.138;2023-01-29T09:02:23;1.13;;;0.63;;
34007;SDS011;41085;51.594;7.138;2023-01-29T09:06:24;1.42;;;0.85;;
34007;SDS011;41085;51.594;7.138;2023-01-29T09:10:24;0.63;;;0.47;;
34007;SDS011;41085;51.594;7.138;2023-01-29T09:14:25;0.90;;;0.60;;
34007;SDS011;41085;51.594;7.138;2023-01-29T09:18:27;0.38;;;0.38;;
34007;SDS011;41085;51.594;7.138;2023-01-29T09:22:28;0.83;;;0.60;;
34007;SDS011;41085;51.594;7.138;2023-01-29T09:26:32;0.47;;;0.40;;
34007;SDS011;41085;51.594;7.138;2023-01-29T09:30:34;0.50;;;0.40;;
34007;SDS011;41085;51.594;7.138;2023-01-29T09:34:36;1.52;;;0.60;;
34007;SDS011;41085;51.594;7.138;2023-01-29T09:38:37;1.50;;;0.70;;
34007;SDS011;41085;51.594;7.138;2023-01-29T09:42:45;0.70;;;0.40;;
34007;SDS011;41085;51.594;7.138;2023-01-29T09:46:58;0.47;;;0.30;;
34007;SDS011;41085;51.594;7.138;2023-01-29T09:51:10;1.03;;;0.57;;
34007;SDS011;41085;51.594;7.138;2023-01-29T09:59:28;0.68;;;0.52;;
34007;SDS011;41085;51.594;7.138;2023-01-29T10:13:10;0.47;;;0.40;;
34007;SDS011;41085;51.594;7.138;2023-01-29T10:25:50;0.38;;;0.38;;
34007;SDS011;41085;51.594;7.138;2023-01-29T10:29:54;0.75;;;0.50;;
34007;SDS011;41085;51.594;7.138;2023-01-29T10:33:59;2.00;;;0.30;;
34007;SDS011;41085;51.594;7.138;2023-01-29T10:38:17;1.03;;;0.60;;
34007;SDS011;41085;51.594;7.138;2023-01-29T10:42:30;1.50;;;0.67;;
34007;SDS011;41085;51.594;7.138;2023-01-29T10:46:44;0.75;;;0.40;;
34007;SDS011;41085;51.594;7.138;2023-01-29T10:55:40;0.53;;;0.40;;
34007;SDS011;41085;51.594;7.138;2023-01-29T10:59:48;0.40;;;0.40;;
34007;SDS011;41085;51.594;7.138;2023-01-29T11:03:57;1.00;;;0.50;;
34007;SDS011;41085;51.594;7.138;2023-01-29T11:08:04;0.50;;;0.30;;
34007;SDS011;41085;51.594;7.138;2023-01-29T11:12:12;0.82;;;0.60;;
34007;SDS011;41085;51.594;7.138;2023-01-29T11:16:18;2.80;;;0.30;;
34007;SDS011;41085;51.594;7.138;2023-01-29T11:20:25;0.50;;;0.40;;
34007;SDS011;41085;51.594;7.138;2023-01-29T11:24:27;0.50;;;0.30;;
34007;SDS011;41085;51.594;7.138;2023-01-29T11:29:00;0.40;;;0.40;;
34007;SDS011;41085;51.594;7.138;2023-01-29T11:32:57;0.67;;;0.50;;
34007;SDS011;41085;51.594;7.138;2023-01-29T11:37:14;0.50;;;0.30;;
34007;SDS011;41085;51.594;7.138;2023-01-29T11:41:15;0.90;;;0.50;;
34007;SDS011;41085;51.594;7.138;2023-01-29T11:49:31;0.30;;;0.30;;
34007;SDS011;41085;51.594;7.138;2023-01-29T11:53:41;0.60;;;0.40;;
34007;SDS011;41085;51.594;7.138;2023-01-29T11:58:02;0.50;;;0.30;;
34007;SDS011;41085;51.594;7.138;2023-01-29T12:06:32;0.40;;;0.30;;
34007;SDS011;41085;51.594;7.138;2023-01-29T12:10:39;0.30;;;0.30;;
34007;SDS011;41085;51.594;7.138;2023-01-29T12:14:41;0.38;;;0.30;;
34007;SDS011;41085;51.594;7.138;2023-01-29T12:18:45;0.23;;;0.20;;
34007;SDS011;41085;51.594;7.138;2023-01-29T12:23:20;0.43;;;0.43;;
34007;SDS011;41085;51.594;7.138;2023-01-29T12:32:13;0.70;;;0.57;;
34007;SDS011;41085;51.594;7.138;2023-01-29T12:36:27;0.30;;;0.30;;
34007;SDS011;41085;51.594;7.138;2023-01-29T12:40:59;0.50;;;0.30;;
34007;SDS011;41085;51.594;7.138;2023-01-29T12:45:14;0.20;;;0.20;;
34007;SDS011;41085;51.594;7.138;2023-01-29T12:49:31;0.43;;;0.30;;
34007;SDS011;41085;51.594;7.138;2023-01-29T12:53:36;0.50;;;0.50;;
34007;SDS011;41085;51.594;7.138;2023-01-29T13:02:14;0.68;;;0.38;;
34007;SDS011;41085;51.594;7.138;2023-01-29T13:06:31;1.03;;;0.60;;
34007;SDS011;41085;51.594;7.138;2023-01-29T13:10:36;0.67;;;0.50;;
34007;SDS011;41085;51.594;7.138;2023-01-29T13:14:48;0.20;;;0.20;;
34007;SDS011;41085;51.594;7.138;2023-01-29T13:18:57;0.70;;;0.30;;
34007;SDS011;41085;51.594;7.138;2023-01-29T13:23:03;0.10;;;0.10;;
34007;SDS011;41085;51.594;7.138;2023-01-29T13:27:35;0.75;;;0.40;;
34007;SDS011;41085;51.594;7.138;2023-01-29T13:31:36;0.57;;;0.43;;
34007;SDS011;41085;51.594;7.138;2023-01-29T13:35:40;0.75;;;0.40;;
34007;SDS011;41085;51.594;7.138;2023-01-29T13:39:50;0.52;;;0.35;;
34007;SDS011;41085;51.594;7.138;2023-01-29T13:43:53;0.30;;;0.30;;
34007;SDS011;41085;51.594;7.138;2023-01-29T13:48:06;2.03;;;0.35;;
34007;SDS011;41085;51.594;7.138;2023-01-29T13:56:28;0.40;;;0.30;;
34007;SDS011;41085;51.594;7.138;2023-01-29T14:00:50;0.32;;;0.20;;
34007;SDS011;41085;51.594;7.138;2023-01-29T14:05:03;0.70;;;0.40;;
34007;SDS011;41085;51.594;7.138;2023-01-29T14:13:36;0.30;;;0.30;;
34007;SDS011;41085;51.594;7.138;2023-01-29T14:17:37;1.48;;;0.20;;
34007;SDS011;41085;51.594;7.138;2023-01-29T14:21:39;1.15;;;0.50;;
34007;SDS011;41085;51.594;7.138;2023-01-29T14:25:40;0.50;;;0.32;;
34007;SDS011;41085;51.594;7.138;2023-01-29T14:29:40;0.30;;;0.10;;
34007;SDS011;41085;51.594;7.138;2023-01-29T14:33:41;0.17;;;0.17;;
34007;SDS011;41085;51.594;7.138;2023-01-29T14:37:43;0.40;;;0.40;;
34007;SDS011;41085;51.594;7.138;2023-01-29T14:41:49;0.40;;;0.20;;
34007;SDS011;41085;51.594;7.138;2023-01-29T14:45:51;0.30;;;0.20;;
34007;SDS011;41085;51.594;7.138;2023-01-29T14:49:56;1.60;;;0.50;;
34007;SDS011;41085;51.594;7.138;2023-01-29T14:54:00;0.67;;;0.30;;
34007;SDS011;41085;51.594;7.138;2023-01-29T14:58:03;0.43;;;0.30;;
34007;SDS011;41085;51.594;7.138;2023-01-29T15:06:42;3.45;;;0.20;;
34007;SDS011;41085;51.594;7.138;2023-01-29T15:11:11;0.15;;;0.15;;
34007;SDS011;41085;51.594;7.138;2023-01-29T15:15:35;0.30;;;0.25;;
34007;SDS011;41085;51.594;7.138;2023-01-29T15:19:42;0.38;;;0.32;;
34007;SDS011;41085;51.594;7.138;2023-01-29T15:23:46;0.45;;;0.28;;
34007;SDS011;41085;51.594;7.138;2023-01-29T15:28:02;0.10;;;0.10;;
34007;SDS011;41085;51.594;7.138;2023-01-29T15:32:09;0.40;;;0.30;;
34007;SDS011;41085;51.594;7.138;2023-01-29T15:36:17;0.60;;;0.43;;
34007;SDS011;41085;51.594;7.138;2023-01-29T15:40:26;0.68;;;0.20;;
34007;SDS011;41085;51.594;7.138;2023-01-29T15:44:27;0.30;;;0.30;;
34007;SDS011;41085;51.594;7.138;2023-01-29T15:48:30;0.40;;;0.30;;
34007;SDS011;41085;51.594;7.138;2023-01-29T15:52:35;0.13;;;0.13;;
34007;SDS011;41085;51.594;7.138;2023-01-29T15:56:37;0.47;;;0.30;;
34007;SDS011;41085;51.594;7.138;2023-01-29T16:00:50;0.15;;;0.15;;
34007;SDS011;41085;51.594;7.138;2023-01-29T16:04:53;0.22;;;0.10;;
34007;SDS011;41085;51.594;7.138;2023-01-29T16:08:54;0.25;;;0.22;;
34007;SDS011;41085;51.594;7.138;2023-01-29T16:12:55;1.00;;;0.30;;
34007;SDS011;41085;51.594;7.138;2023-01-29T16:17:03;0.35;;;0.30;;
34007;SDS011;41085;51.594;7.138;2023-01-29T16:21:13;0.10;;;0.10;;
34007;SDS011;41085;51.594;7.138;2023-01-29T16:25:15;0.30;;;0.20;;
34007;SDS011;41085;51.594;7.138;2023-01-29T16:29:20;0.38;;;0.28;;
34007;SDS011;41085;51.594;7.138;2023-01-29T16:33:22;0.20;;;0.13;;
34007;SDS011;41085;51.594;7.138;2023-01-29T16:37:32;0.25;;;0.25;;
34007;SDS011;41085;51.594;7.138;2023-01-29T16:41:37;0.60;;;0.30;;
34007;SDS011;41085;51.594;7.138;2023-01-29T16:45:38;0.40;;;0.30;;
34007;SDS011;41085;51.594;7.138;2023-01-29T16:53:39;0.47;;;0.20;;
34007;SDS011;41085;51.594;7.138;2023-01-29T16:57:52;0.20;;;0.20;;
34007;SDS011;41085;51.594;7.138;2023-01-29T17:01:54;0.60;;;0.30;;
34007;SDS011;41085;51.594;7.138;2023-01-29T17:05:55;0.20;;;0.20;;
34007;SDS011;41085;51.594;7.138;2023-01-29T17:09:57;0.20;;;0.20;;
34007;SDS011;41085;51.594;7.138;2023-01-29T17:13:59;0.40;;;0.22;;
34007;SDS011;41085;51.594;7.138;2023-01-29T17:18:00;0.40;;;0.35;;
34007;SDS011;41085;51.594;7.138;2023-01-29T17:22:02;0.20;;;0.10;;
34007;SDS011;41085;51.594;7.138;2023-01-29T17:26:06;0.10;;;0.10;;
34007;SDS011;41085;51.594;7.138;2023-01-29T17:30:13;0.30;;;0.20;;
34007;SDS011;41085;51.594;7.138;2023-01-29T17:34:15;0.15;;;0.15;;
34007;SDS011;41085;51.594;7.138;2023-01-29T17:38:18;0.45;;;0.35;;
34007;SDS011;41085;51.594;7.138;2023-01-29T17:42:19;0.20;;;0.10;;
34007;SDS011;41085;51.594;7.138;2023-01-29T17:46:20;0.40;;;0.30;;
34007;SDS011;41085;51.594;7.138;2023-01-29T17:50:22;0.32;;;0.30;;
34007;SDS011;41085;51.594;7.138;2023-01-29T17:54:27;0.28;;;0.28;;
34007;SDS011;41085;51.594;7.138;2023-01-29T17:58:28;0.80;;;0.30;;
34007;SDS011;41085;51.594;7.138;2023-01-29T18:02:29;0.30;;;0.22;;
34007;SDS011;41085;51.594;7.138;2023-01-29T18:06:29;0.30;;;0.20;;
34007;SDS011;41085;51.594;7.138;2023-01-29T18:10:30;0.20;;;0.20;;
34007;SDS011;41085;51.594;7.138;2023-01-29T18:14:30;0.50;;;0.30;;
34007;SDS011;41085;51.594;7.138;2023-01-29T18:18:31;0.23;;;0.20;;
34007;SDS011;41085;51.594;7.138;2023-01-29T18:22:31;0.22;;;0.20;;
34007;SDS011;41085;51.594;7.138;2023-01-29T18:26:32;0.80;;;0.20;;
34007;SDS011;41085;51.594;7.138;2023-01-29T18:30:34;0.50;;;0.25;;
34007;SDS011;41085;51.594;7.138;2023-01-29T18:34:36;0.37;;;0.27;;
34007;SDS011;41085;51.594;7.138;2023-01-29T18:38:37;0.20;;;0.20;;
34007;SDS011;41085;51.594;7.138;2023-01-29T18:42:37;0.20;;;0.20;;
34007;SDS011;41085;51.594;7.138;2023-01-29T18:46:40;0.30;;;0.20;;
34007;SDS011;41085;51.594;7.138;2023-01-29T18:50:41;0.15;;;0.10;;
34007;SDS011;41085;51.594;7.138;2023-01-29T18:54:42;0.30;;;0.30;;
34007;SDS011;41085;51.594;7.138;2023-01-29T18:58:42;0.73;;;0.30;;
34007;SDS011;41085;51.594;7.138;2023-01-29T19:02:45;0.55;;;0.38;;
34007;SDS011;41085;51.594;7.138;2023-01-29T19:06:46;0.10;;;0.10;;
34007;SDS011;41085;51.594;7.138;2023-01-29T19:10:46;0.30;;;0.20;;
34007;SDS011;41085;51.594;7.138;2023-01-29T19:14:47;0.20;;;0.20;;
34007;SDS011;41085;51.594;7.138;2023-01-29T19:18:48;0.30;;;0.20;;
34007;SDS011;41085;51.594;7.138;2023-01-29T19:22:49;0.20;;;0.10;;
34007;SDS011;41085;51.594;7.138;2023-01-29T19:26:51;0.20;;;0.20;;
34007;SDS011;41085;51.594;7.138;2023-01-29T19:30:55;0.40;;;0.30;;
34007;SDS011;41085;51.594;7.138;2023-01-29T19:34:56;0.28;;;0.20;;
34007;SDS011;41085;51.594;7.138;2023-01-29T19:38:57;0.47;;;0.20;;
34007;SDS011;41085;51.594;7.138;2023-01-29T19:42:58;0.27;;;0.20;;
34007;SDS011;41085;51.594;7.138;2023-01-29T19:46:59;0.40;;;0.40;;
34007;SDS011;41085;51.594;7.138;2023-01-29T19:51:00;0.40;;;0.20;;
34007;SDS011;41085;51.594;7.138;2023-01-29T19:55:08;0.10;;;0.10;;
34007;SDS011;41085;51.594;7.138;2023-01-29T19:59:09;0.30;;;0.20;;
34007;SDS011;41085;51.594;7.138;2023-01-29T20:03:10;0.50;;;0.30;;
34007;SDS011;41085;51.594;7.138;2023-01-29T20:07:11;0.23;;;0.20;;
34007;SDS011;41085;51.594;7.138;2023-01-29T20:11:12;0.20;;;0.20;;
34007;SDS011;41085;51.594;7.138;2023-01-29T20:15:13;0.60;;;0.40;;
34007;SDS011;41085;51.594;7.138;2023-01-29T20:19:14;0.20;;;0.20;;
34007;SDS011;41085;51.594;7.138;2023-01-29T20:23:16;0.20;;;0.20;;
34007;SDS011;41085;51.594;7.138;2023-01-29T20:27:18;0.40;;;0.40;;
34007;SDS011;41085;51.594;7.138;2023-01-29T20:31:18;1.40;;;0.40;;
34007;SDS011;41085;51.594;7.138;2023-01-29T20:35:19;0.20;;;0.20;;
34007;SDS011;41085;51.594;7.138;2023-01-29T20:39:19;0.28;;;0.28;;
34007;SDS011;41085;51.594;7.138;2023-01-29T20:43:20;0.30;;;0.30;;
34007;SDS011;41085;51.594;7.138;2023-01-29T20:47:20;0.30;;;0.20;;
34007;SDS011;41085;51.594;7.138;2023-01-29T20:51:21;0.20;;;0.20;;
34007;SDS011;41085;51.594;7.138;2023-01-29T20:55:22;2.20;;;0.20;;
34007;SDS011;41085;51.594;7.138;2023-01-29T20:59:22;0.40;;;0.30;;
34007;SDS011;41085;51.594;7.138;2023-01-29T21:03:23;1.80;;;0.80;;
34007;SDS011;41085;51.594;7.138;2023-01-29T21:07:24;2.57;;;1.13;;
34007;SDS011;41085;51.594;7.138;2023-01-29T21:11:24;1.33;;;0.60;;
34007;SDS011;41085;51.594;7.138;2023-01-29T21:15:25;0.67;;;0.57;;
34007;SDS011;41085;51.594;7.138;2023-01-29T21:19:26;2.83;;;0.80;;
34007;SDS011;41085;51.594;7.138;2023-01-29T21:23:27;1.20;;;0.57;;
34007;SDS011;41085;51.594;7.138;2023-01-29T21:27:28;1.60;;;1.50;;
34007;SDS011;41085;51.594;7.138;2023-01-29T21:31:29;5.47;;;4.50;;
34007;SDS011;41085;51.594;7.138;2023-01-29T21:35:29;7.40;;;5.60;;
34007;SDS011;41085;51.594;7.138;2023-01-29T21:39:31;13.05;;;7.93;;
34007;SDS011;41085;51.594;7.138;2023-01-29T21:43:31;9.35;;;8.20;;
34007;SDS011;41085;51.594;7.138;2023-01-29T21:47:32;9.60;;;7.53;;
34007;SDS011;41085;51.594;7.138;2023-01-29T21:51:33;10.47;;;8.17;;
34007;SDS011;41085;51.594;7.138;2023-01-29T21:55:33;9.23;;;7.90;;
34007;SDS011;41085;51.594;7.138;2023-01-29T21:59:34;8.03;;;7.23;;
34007;SDS011;41085;51.594;7.138;2023-01-29T22:03:34;10.50;;;8.77;;
34007;SDS011;41085;51.594;7.138;2023-01-29T22:07:35;9.77;;;8.57;;
34007;SDS011;41085;51.594;7.138;2023-01-29T22:11:36;8.88;;;7.45;;
34007;SDS011;41085;51.594;7.138;2023-01-29T22:15:37;7.27;;;5.87;;
34007;SDS011;41085;51.594;7.138;2023-01-29T22:19:37;8.20;;;7.00;;
34007;SDS011;41085;51.594;7.138;2023-01-29T22:23:38;8.13;;;6.80;;
34007;SDS011;41085;51.594;7.138;2023-01-29T22:27:38;8.30;;;5.90;;
34007;SDS011;41085;51.594;7.138;2023-01-29T22:31:39;8.57;;;5.83;;
34007;SDS011;41085;51.594;7.138;2023-01-29T22:35:39;7.85;;;5.30;;
34007;SDS011;41085;51.594;7.138;2023-01-29T22:39:40;5.73;;;4.53;;
34007;SDS011;41085;51.594;7.138;2023-01-29T22:43:40;5.30;;;4.80;;
34007;SDS011;41085;51.594;7.138;2023-01-29T22:47:42;7.68;;;4.68;;
34007;SDS011;41085;51.594;7.138;2023-01-29T22:51:43;4.77;;;3.97;;
34007;SDS011;41085;51.594;7.138;2023-01-29T22:55:51;7.50;;;4.25;;
34007;SDS011;41085;51.594;7.138;2023-01-29T22:59:53;4.07;;;3.65;;
34007;SDS011;41085;51.594;7.138;2023-01-29T23:03:54;5.63;;;3.53;;
34007;SDS011;41085;51.594;7.138;2023-01-29T23:07:54;3.57;;;2.97;;
34007;SDS011;41085;51.594;7.138;2023-01-29T23:11:55;3.15;;;2.85;;
34007;SDS011;41085;51.594;7.138;2023-01-29T23:15:58;5.73;;;3.33;;
34007;SDS011;41085;51.594;7.138;2023-01-29T23:19:59;5.47;;;3.40;;
34007;SDS011;41085;51.594;7.138;2023-01-29T23:23:59;3.55;;;2.60;;
34007;SDS011;41085;51.594;7.138;2023-01-29T23:28:00;3.10;;;2.20;;
34007;SDS011;41085;51.594;7.138;2023-01-29T23:32:00;3.67;;;1.97;;
34007;SDS011;41085;51.594;7.138;2023-01-29T23:36:02;2.75;;;1.88;;
34007;SDS011;41085;51.594;7.138;2023-01-29T23:40:03;1.85;;;1.30;;
34007;SDS011;41085;51.594;7.138;2023-01-29T23:44:07;3.33;;;2.17;;
34007;SDS011;41085;51.594;7.138;2023-01-29T23:48:09;2.05;;;1.50;;
34007;SDS011;41085;51.594;7.138;2023-01-29T23:52:09;2.73;;;2.07;;
34007;SDS011;41085;51.594;7.138;2023-01-29T23:56:10;2.78;;;1.77;;
